Terminal Aerodrome Forecast
Issued by NWS Sterling, VA

Current Version | Previous Version | Graphics & Text | Print | Product List | Glossary On
Versions: 1 2 3 4 5 6 7 8 9 10 11 12 13 14 15 16 17 18 19 20 21 22 23 24
000
FTUS41 KLWX 201100
TAFIAD
TAF
KIAD 201126Z 2012/2118 34003KT P6SM SCT015 OVC050
     FM201600 07004KT P6SM SCT050 BKN090
     FM210900 11004KT P6SM OVC025
     FM211200 09004KT P6SM BKN015
     FM211500 10005KT P6SM BKN025=

USA.gov is the U.S. government's official web portal to all federal, state and local government web resources and services.